Time;durP1;ratioP1;P1;durP2;ratioP2;P2;SDS_P1;SDS_P2;PMS_P1;PMS_P2;Temp;Humidity;BMP_temperature;BMP_pressure;BME280_temperature;BME280_humidity;BME280_pressure;Samples;Min_cycle;Max_cycle;Signal;HPM_P1;HPM_P2
2022/02/22 00:02:26;;;;;;;31.60;18.25;;;;;;;;;;10421034;28;20274;-78
2022/02/22 00:07:26;;;;;;;35.38;18.92;;;;;;;;;;10421001;28;20021;-73
2022/02/22 00:12:26;;;;;;;26.83;17.55;;;;;;;;;;10404676;28;20486;-72
2022/02/22 00:17:27;;;;;;;31.03;19.00;;;;;;;;;;10404919;28;20397;-72
2022/02/22 00:22:28;;;;;;;31.13;16.60;;;;;;;;;;10405954;28;20260;-76
2022/02/22 00:27:28;;;;;;;36.75;18.55;;;;;;;;;;10411553;28;20024;-76
2022/02/22 00:32:28;;;;;;;29.58;16.15;;;;;;;;;;10427853;28;20497;-73
2022/02/22 00:37:29;;;;;;;29.35;17.02;;;;;;;;;;10427895;28;20029;-74
2022/02/22 00:42:29;;;;;;;36.03;17.48;;;;;;;;;;10428139;28;20031;-72
2022/02/22 00:47:29;;;;;;;34.43;18.13;;;;;;;;;;10427406;28;20515;-74
2022/02/22 00:52:30;;;;;;;34.90;17.33;;;;;;;;;;10427587;28;20021;-72
2022/02/22 00:57:30;;;;;;;27.10;17.27;;;;;;;;;;10411771;28;20021;-73
2022/02/22 01:02:30;;;;;;;34.67;17.30;;;;;;;;;;10427540;28;20029;-77
2022/02/22 01:07:31;;;;;;;28.00;17.20;;;;;;;;;;10426885;28;20112;-73
2022/02/22 01:12:31;;;;;;;30.33;16.83;;;;;;;;;;10409873;28;20643;-73
2022/02/22 01:17:32;;;;;;;31.10;16.83;;;;;;;;;;10410184;28;20429;-72
2022/02/22 01:22:32;;;;;;;28.77;16.45;;;;;;;;;;10427127;28;20025;-75
2022/02/22 01:27:33;;;;;;;28.42;16.13;;;;;;;;;;10409491;28;20030;-74
2022/02/22 01:32:33;;;;;;;30.38;18.67;;;;;;;;;;10410028;28;20133;-74
2022/02/22 01:37:34;;;;;;;25.50;15.93;;;;;;;;;;10425785;28;20124;-71
2022/02/22 01:42:34;;;;;;;26.45;16.73;;;;;;;;;;10409841;28;20113;-75
2022/02/22 01:47:35;;;;;;;32.95;17.95;;;;;;;;;;10408813;28;20025;-73
2022/02/22 01:52:35;;;;;;;34.20;16.50;;;;;;;;;;10425039;28;20019;-73
2022/02/22 01:57:35;;;;;;;26.98;16.00;;;;;;;;;;10425150;28;20109;-74
2022/02/22 02:02:36;;;;;;;24.57;14.63;;;;;;;;;;10407800;28;20030;-73
2022/02/22 02:07:36;;;;;;;27.00;15.80;;;;;;;;;;10407577;28;20421;-73
2022/02/22 02:12:37;;;;;;;27.58;15.52;;;;;;;;;;10423934;28;20112;-71
2022/02/22 02:17:37;;;;;;;35.65;17.15;;;;;;;;;;10407061;28;20033;-74
2022/02/22 02:22:38;;;;;;;28.67;16.90;;;;;;;;;;10423879;28;20116;-74
2022/02/22 02:27:38;;;;;;;34.58;19.02;;;;;;;;;;10408510;28;20021;-74
2022/02/22 02:32:39;;;;;;;34.90;19.47;;;;;;;;;;10406214;28;20569;-72
2022/02/22 02:37:40;;;;;;;36.65;19.60;;;;;;;;;;10407820;28;20108;-74
2022/02/22 02:42:43;;;;;;;32.35;17.65;;;;;;;;;;10408242;28;20036;-72
2022/02/22 02:47:44;;;;;;;35.50;19.80;;;;;;;;;;10406246;28;20032;-72
2022/02/22 02:52:45;;;;;;;34.08;20.65;;;;;;;;;;10407291;28;20051;-72
2022/02/22 02:57:45;;;;;;;33.87;19.53;;;;;;;;;;10422951;28;20112;-73
2022/02/22 03:02:45;;;;;;;36.28;20.35;;;;;;;;;;10406472;28;20268;-72
2022/02/22 03:07:46;;;;;;;37.15;19.60;;;;;;;;;;10421548;28;20040;-72
2022/02/22 03:12:46;;;;;;;36.53;20.08;;;;;;;;;;10421604;28;20489;-73
2022/02/22 03:17:46;;;;;;;35.35;20.20;;;;;;;;;;10406111;28;20026;-73
2022/02/22 03:22:47;;;;;;;38.28;21.70;;;;;;;;;;10406313;28;20029;-73
2022/02/22 03:27:48;;;;;;;40.40;21.13;;;;;;;;;;10420915;28;20026;-74
2022/02/22 03:32:48;;;;;;;33.60;21.33;;;;;;;;;;10420983;28;20049;-73
2022/02/22 03:37:48;;;;;;;40.70;20.80;;;;;;;;;;10421204;28;20033;-72
2022/02/22 03:42:48;;;;;;;40.78;19.95;;;;;;;;;;10405681;28;20018;-74
2022/02/22 03:47:49;;;;;;;34.13;18.57;;;;;;;;;;10404304;28;20013;-73
2022/02/22 03:52:50;;;;;;;34.47;20.03;;;;;;;;;;10421324;28;20437;-73
2022/02/22 03:57:50;;;;;;;41.10;21.52;;;;;;;;;;10412920;28;20260;-72
2022/02/22 04:02:51;;;;;;;43.80;21.42;;;;;;;;;;10429825;28;20412;-72
2022/02/22 04:07:51;;;;;;;36.60;18.73;;;;;;;;;;10429240;28;20398;-72
2022/02/22 04:12:51;;;;;;;31.60;18.17;;;;;;;;;;10429295;28;20418;-73
2022/02/22 04:17:51;;;;;;;33.72;16.63;;;;;;;;;;10428780;28;20022;-73
2022/02/22 04:22:52;;;;;;;32.60;16.08;;;;;;;;;;10428567;28;20586;-71
2022/02/22 04:27:52;;;;;;;34.70;17.47;;;;;;;;;;10414749;28;20334;-72
2022/02/22 04:32:52;;;;;;;38.77;20.70;;;;;;;;;;10429263;28;20128;-73
2022/02/22 04:37:53;;;;;;;33.67;16.65;;;;;;;;;;10428308;28;20025;-72
2022/02/22 04:42:53;;;;;;;29.88;15.00;;;;;;;;;;10451082;28;20503;-77
2022/02/22 04:47:56;;;;;;;18.70;9.90;;;;;;;;;;10426923;28;20030;-72
2022/02/22 04:52:56;;;;;;;14.85;8.73;;;;;;;;;;10412224;28;20100;-72
2022/02/22 04:57:56;;;;;;;13.95;6.60;;;;;;;;;;10410676;28;20105;-73
2022/02/22 05:02:56;;;;;;;11.02;5.78;;;;;;;;;;10409901;28;20026;-76
2022/02/22 05:07:57;;;;;;;8.38;4.35;;;;;;;;;;10409205;28;20032;-74
2022/02/22 05:12:57;;;;;;;8.83;5.33;;;;;;;;;;10409808;28;20021;-75
2022/02/22 05:17:57;;;;;;;21.00;7.20;;;;;;;;;;10408935;28;20025;-76
2022/02/22 05:22:58;;;;;;;15.23;5.80;;;;;;;;;;10410505;28;20477;-75
2022/02/22 05:27:58;;;;;;;18.40;6.80;;;;;;;;;;10450642;28;20116;-76
2022/02/22 05:32:58;;;;;;;10.32;6.05;;;;;;;;;;10449485;28;20042;-73
2022/02/22 05:37:59;;;;;;;12.63;6.35;;;;;;;;;;10449339;28;20071;-74
2022/02/22 05:42:59;;;;;;;14.00;6.77;;;;;;;;;;10449290;28;20025;-72
2022/02/22 05:47:59;;;;;;;21.33;7.32;;;;;;;;;;10448817;28;20017;-73
2022/02/22 05:53:00;;;;;;;11.82;6.35;;;;;;;;;;10450448;28;20025;-72
2022/02/22 05:58:00;;;;;;;12.73;6.78;;;;;;;;;;10449402;28;20484;-73
2022/02/22 06:03:00;;;;;;;14.23;6.43;;;;;;;;;;10447596;28;20021;-74
2022/02/22 06:08:01;;;;;;;11.33;6.13;;;;;;;;;;10447925;28;20017;-74
2022/02/22 06:13:01;;;;;;;11.55;6.43;;;;;;;;;;10448052;28;20104;-71
2022/02/22 06:18:01;;;;;;;14.50;7.35;;;;;;;;;;10444335;28;20455;-73
2022/02/22 06:23:02;;;;;;;17.38;7.30;;;;;;;;;;10442240;28;20025;-72
2022/02/22 06:28:03;;;;;;;19.55;10.05;;;;;;;;;;10442366;28;20100;-72
2022/02/22 06:33:03;;;;;;;15.43;8.57;;;;;;;;;;10445409;28;20049;-71
2022/02/22 06:38:03;;;;;;;17.50;7.90;;;;;;;;;;10448274;28;20037;-71
2022/02/22 06:43:04;;;;;;;16.45;8.48;;;;;;;;;;10446377;28;20023;-73
2022/02/22 06:48:04;;;;;;;17.50;8.57;;;;;;;;;;10445519;28;20381;-71
2022/02/22 06:53:05;;;;;;;18.05;7.25;;;;;;;;;;10446120;28;20079;-71
2022/02/22 06:58:09;;;;;;;11.03;6.20;;;;;;;;;;10445804;28;20045;-71
2022/02/22 07:03:09;;;;;;;9.63;6.38;;;;;;;;;;10445234;28;20017;-70
2022/02/22 07:08:10;;;;;;;10.68;6.20;;;;;;;;;;10445570;28;20025;-71
2022/02/22 07:13:10;;;;;;;13.60;6.83;;;;;;;;;;10428931;28;20425;-71
2022/02/22 07:18:11;;;;;;;11.35;7.60;;;;;;;;;;10445717;28;20052;-72
2022/02/22 07:23:11;;;;;;;15.82;7.35;;;;;;;;;;10446540;28;20032;-71
2022/02/22 07:28:12;;;;;;;15.10;7.35;;;;;;;;;;10445821;28;20405;-75
2022/02/22 07:33:12;;;;;;;12.47;7.40;;;;;;;;;;10427826;28;20051;-73
2022/02/22 07:38:13;;;;;;;15.38;8.15;;;;;;;;;;10445049;28;20028;-70
2022/02/22 07:43:13;;;;;;;12.73;6.57;;;;;;;;;;10444859;28;20025;-70
2022/02/22 07:48:13;;;;;;;12.20;7.47;;;;;;;;;;10446116;28;20052;-74
2022/02/22 07:53:14;;;;;;;10.38;4.90;;;;;;;;;;10445058;28;20028;-71
2022/02/22 07:58:16;;;;;;;9.02;4.40;;;;;;;;;;10444785;28;20036;-70
2022/02/22 08:03:16;;;;;;;6.65;3.63;;;;;;;;;;10446245;28;20404;-70
2022/02/22 08:08:16;;;;;;;4.65;3.25;;;;;;;;;;10444539;28;20025;-71
2022/02/22 08:13:17;;;;;;;12.37;3.60;;;;;;;;;;10444365;28;20025;-72
2022/02/22 08:18:17;;;;;;;10.48;5.75;;;;;;;;;;10443650;28;20033;-71
2022/02/22 08:23:18;;;;;;;5.85;4.25;;;;;;;;;;10444237;28;20049;-70
2022/02/22 08:28:19;;;;;;;14.93;5.20;;;;;;;;;;10444292;28;20029;-69
2022/02/22 08:33:20;;;;;;;12.57;5.40;;;;;;;;;;10444733;28;20056;-69
2022/02/22 08:38:20;;;;;;;7.95;4.90;;;;;;;;;;10427465;28;20040;-70
2022/02/22 08:43:20;;;;;;;6.67;4.40;;;;;;;;;;10444200;28;20040;-76
2022/02/22 08:48:21;;;;;;;8.97;4.87;;;;;;;;;;10451034;28;20717;-77
2022/02/22 08:53:21;;;;;;;11.00;6.00;;;;;;;;;;10450986;28;20021;-72
2022/02/22 08:58:21;;;;;;;15.63;8.73;;;;;;;;;;10451073;28;20025;-71
2022/02/22 09:03:22;;;;;;;21.40;11.25;;;;;;;;;;10450653;28;20036;-72
2022/02/22 09:08:22;;;;;;;19.40;11.53;;;;;;;;;;10450574;28;20025;-76
2022/02/22 09:13:22;;;;;;;16.70;10.35;;;;;;;;;;10450386;28;20090;-73
2022/02/22 09:18:22;;;;;;;20.73;11.57;;;;;;;;;;10450376;28;20025;-69
2022/02/22 09:23:23;;;;;;;19.80;11.00;;;;;;;;;;10451300;28;20028;-71
2022/02/22 09:28:23;;;;;;;17.20;10.55;;;;;;;;;;10449951;28;20484;-72
2022/02/22 09:33:23;;;;;;;19.43;11.13;;;;;;;;;;10449862;28;20045;-71
2022/02/22 09:38:24;;;;;;;18.60;9.87;;;;;;;;;;10448701;28;20029;-70
2022/02/22 09:43:24;;;;;;;19.05;9.50;;;;;;;;;;10449109;28;20020;-70
2022/02/22 09:48:25;;;;;;;11.63;7.57;;;;;;;;;;10449106;28;20037;-72
2022/02/22 09:53:25;;;;;;;13.07;8.25;;;;;;;;;;10450051;28;20086;-71
2022/02/22 09:58:25;;;;;;;14.50;8.80;;;;;;;;;;10448007;28;20025;-75
2022/02/22 10:03:26;;;;;;;14.40;7.57;;;;;;;;;;10448938;28;20031;-71
2022/02/22 10:08:27;;;;;;;13.38;5.85;;;;;;;;;;10449776;28;20094;-76
2022/02/22 10:13:29;;;;;;;8.43;5.50;;;;;;;;;;10430963;28;20029;-72
2022/02/22 10:18:29;;;;;;;6.15;3.97;;;;;;;;;;10449369;28;20110;-72
2022/02/22 10:23:30;;;;;;;6.07;3.57;;;;;;;;;;10430786;28;20167;-71
2022/02/22 10:28:31;;;;;;;4.68;2.95;;;;;;;;;;10446812;28;20281;-72
2022/02/22 10:33:33;;;;;;;3.70;2.93;;;;;;;;;;10448805;28;20052;-74
2022/02/22 10:38:35;;;;;;;5.55;3.47;;;;;;;;;;10446337;28;20033;-71
2022/02/22 10:43:37;;;;;;;9.43;3.95;;;;;;;;;;10446331;28;20031;-76
2022/02/22 10:48:39;;;;;;;6.78;4.00;;;;;;;;;;10446318;28;20499;-71
2022/02/22 10:53:41;;;;;;;4.47;2.97;;;;;;;;;;10446518;28;20048;-75
2022/02/22 10:58:44;;;;;;;5.70;3.13;;;;;;;;;;10446618;28;20025;-71
2022/02/22 11:03:44;;;;;;;6.07;3.65;;;;;;;;;;10446126;28;20025;-75
2022/02/22 11:08:46;;;;;;;6.65;4.85;;;;;;;;;;10446511;28;20041;-71
2022/02/22 11:13:57;;;;;;;5.65;3.80;;;;;;;;;;10445852;28;20095;-71
2022/02/22 11:18:57;;;;;;;8.15;3.60;;;;;;;;;;10444878;28;20056;-71
2022/02/22 11:24:02;;;;;;;6.80;4.35;;;;;;;;;;10445398;28;20464;-74
2022/02/22 11:29:06;;;;;;;4.65;3.72;;;;;;;;;;10445594;28;20020;-70
2022/02/22 11:34:07;;;;;;;10.05;3.88;;;;;;;;;;10445588;28;20053;-74
2022/02/22 11:39:18;;;;;;;6.18;4.05;;;;;;;;;;10445913;28;20485;-68
2022/02/22 11:44:21;;;;;;;6.93;4.47;;;;;;;;;;10444866;28;20036;-69
2022/02/22 11:49:24;;;;;;;5.22;3.38;;;;;;;;;;10445175;28;20033;-71
2022/02/22 11:54:25;;;;;;;5.85;3.92;;;;;;;;;;10446181;28;20485;-71
2022/02/22 11:59:25;;;;;;;5.70;4.05;;;;;;;;;;10440071;28;20025;-71
2022/02/22 12:04:27;;;;;;;6.20;4.22;;;;;;;;;;10403303;28;20031;-73
2022/02/22 12:09:37;;;;;;;5.43;3.55;;;;;;;;;;10403367;28;20030;-71
2022/02/22 12:14:49;;;;;;;8.63;4.22;;;;;;;;;;10403418;28;20025;-71
2022/02/22 12:19:50;;;;;;;6.53;5.10;;;;;;;;;;10407381;28;20033;-71
2022/02/22 12:25:16;;;;;;;4.70;3.08;;;;;;;;;;10411288;28;20026;-71
2022/02/22 12:30:17;;;;;;;5.90;4.00;;;;;;;;;;10406648;28;20453;-72
2022/02/22 12:35:17;;;;;;;6.87;4.00;;;;;;;;;;10426901;28;20111;-72
2022/02/22 12:40:19;;;;;;;5.13;3.55;;;;;;;;;;10410655;28;20033;-73
2022/02/22 12:45:21;;;;;;;7.07;3.78;;;;;;;;;;10410122;28;20085;-70
2022/02/22 12:50:22;;;;;;;6.47;4.75;;;;;;;;;;10411299;28;20017;-71
2022/02/22 12:55:22;;;;;;;7.07;4.47;;;;;;;;;;10426579;28;20023;-76
2022/02/22 13:00:22;;;;;;;8.88;5.10;;;;;;;;;;10409858;28;20044;-71
2022/02/22 13:05:22;;;;;;;7.00;4.03;;;;;;;;;;10452195;28;20024;-72
2022/02/22 13:10:24;;;;;;;8.20;6.00;;;;;;;;;;10449314;28;20586;-72
2022/02/22 13:15:24;;;;;;;10.20;5.18;;;;;;;;;;10408771;28;20021;-70
2022/02/22 13:20:26;;;;;;;7.55;4.70;;;;;;;;;;10443257;28;20033;-75
2022/02/22 13:25:26;;;;;;;11.73;6.80;;;;;;;;;;10426203;28;20082;-72
2022/02/22 13:30:27;;;;;;;6.53;5.45;;;;;;;;;;10408426;28;20500;-71
2022/02/22 13:35:28;;;;;;;8.57;6.25;;;;;;;;;;10410355;28;20064;-77
2022/02/22 13:40:31;;;;;;;10.87;6.50;;;;;;;;;;10408071;28;20032;-71
2022/02/22 13:45:32;;;;;;;15.70;5.70;;;;;;;;;;10409199;28;20109;-74
2022/02/22 13:50:33;;;;;;;12.45;7.00;;;;;;;;;;10409433;28;20554;-71
2022/02/22 13:55:34;;;;;;;18.17;7.03;;;;;;;;;;10407812;28;20022;-74
2022/02/22 14:00:44;;;;;;;14.63;6.47;;;;;;;;;;10407131;28;20529;-74
2022/02/22 14:05:44;;;;;;;11.85;7.43;;;;;;;;;;10407682;28;20500;-70
2022/02/22 14:10:46;;;;;;;12.97;7.57;;;;;;;;;;10406874;28;20030;-72
2022/02/22 14:15:47;;;;;;;12.43;7.82;;;;;;;;;;10407648;28;20018;-76
2022/02/22 14:20:47;;;;;;;13.45;7.15;;;;;;;;;;10417389;28;20586;-71
2022/02/22 14:25:48;;;;;;;11.07;7.45;;;;;;;;;;10444857;28;20452;-76
2022/02/22 14:30:49;;;;;;;12.05;8.68;;;;;;;;;;10408617;28;20051;-71
2022/02/22 14:35:49;;;;;;;14.77;8.40;;;;;;;;;;10405730;28;20475;-71
2022/02/22 14:40:49;;;;;;;15.40;8.90;;;;;;;;;;10405764;28;20025;-72
2022/02/22 14:45:50;;;;;;;17.90;8.57;;;;;;;;;;10423834;28;20028;-76
2022/02/22 14:50:51;;;;;;;13.93;7.20;;;;;;;;;;10406891;28;20025;-72
2022/02/22 14:55:51;;;;;;;15.85;8.63;;;;;;;;;;10407234;28;20405;-72
2022/02/22 15:00:52;;;;;;;18.77;11.32;;;;;;;;;;10419729;28;20041;-73
2022/02/22 15:05:53;;;;;;;18.48;9.82;;;;;;;;;;10405116;28;20032;-72
2022/02/22 15:10:53;;;;;;;14.30;8.95;;;;;;;;;;10405084;28;20022;-73
2022/02/22 15:15:54;;;;;;;21.38;11.35;;;;;;;;;;10404597;28;20021;-72
2022/02/22 15:20:54;;;;;;;17.45;9.57;;;;;;;;;;10441280;28;20032;-72
2022/02/22 15:25:55;;;;;;;23.52;12.50;;;;;;;;;;10445052;28;20021;-72
2022/02/22 15:30:55;;;;;;;22.10;12.73;;;;;;;;;;10444286;28;20021;-73
2022/02/22 15:35:57;;;;;;;19.35;12.18;;;;;;;;;;10444413;28;20055;-75
2022/02/22 15:40:57;;;;;;;39.97;13.25;;;;;;;;;;10444208;28;20025;-74
2022/02/22 15:45:57;;;;;;;27.37;14.07;;;;;;;;;;10445962;28;20013;-75
2022/02/22 15:50:58;;;;;;;27.20;14.73;;;;;;;;;;10444413;28;20028;-72
2022/02/22 15:55:58;;;;;;;30.80;15.05;;;;;;;;;;10455337;28;20032;-71
2022/02/22 16:00:58;;;;;;;30.17;14.45;;;;;;;;;;10440979;28;20093;-72
2022/02/22 16:05:59;;;;;;;32.67;18.05;;;;;;;;;;10458015;28;20021;-71
2022/02/22 16:11:02;;;;;;;29.97;17.07;;;;;;;;;;10448300;28;20029;-74
2022/02/22 16:16:02;;;;;;;31.13;16.52;;;;;;;;;;10418633;28;20022;-76
2022/02/22 16:21:05;;;;;;;37.97;15.50;;;;;;;;;;10457934;28;20024;-73
2022/02/22 16:26:05;;;;;;;42.15;18.38;;;;;;;;;;10457534;28;20152;-71
2022/02/22 16:31:06;;;;;;;34.85;16.83;;;;;;;;;;10457323;28;20021;-74
2022/02/22 16:36:07;;;;;;;34.15;18.17;;;;;;;;;;10457670;28;20106;-72
2022/02/22 16:41:07;;;;;;;43.07;20.80;;;;;;;;;;10436266;28;20025;-72
2022/02/22 16:46:08;;;;;;;37.10;20.42;;;;;;;;;;10417034;28;20018;-76
2022/02/22 16:51:08;;;;;;;37.45;20.52;;;;;;;;;;10432411;28;20022;-71
2022/02/22 16:56:08;;;;;;;40.87;19.60;;;;;;;;;;10415084;28;20484;-74
2022/02/22 17:01:09;;;;;;;36.17;19.65;;;;;;;;;;10416737;28;20262;-72
2022/02/22 17:06:09;;;;;;;40.58;20.23;;;;;;;;;;10427396;28;20029;-72
2022/02/22 17:11:09;;;;;;;38.25;19.83;;;;;;;;;;10408988;28;20029;-71
2022/02/22 17:16:10;;;;;;;35.87;20.93;;;;;;;;;;10408646;28;20095;-71
2022/02/22 17:21:11;;;;;;;40.45;18.95;;;;;;;;;;10409217;28;20489;-71
2022/02/22 17:26:11;;;;;;;36.25;20.20;;;;;;;;;;10408636;28;20108;-71
2022/02/22 17:31:15;;;;;;;36.28;19.10;;;;;;;;;;10408410;28;20039;-73
2022/02/22 17:36:15;;;;;;;46.70;25.50;;;;;;;;;;10408287;28;20061;-72
2022/02/22 17:41:15;;;;;;;52.15;24.15;;;;;;;;;;10408200;28;20515;-71
2022/02/22 17:46:16;;;;;;;45.67;23.40;;;;;;;;;;10409526;28;20484;-69
2022/02/22 17:51:16;;;;;;;44.38;23.77;;;;;;;;;;10408032;28;20378;-71
2022/02/22 17:56:16;;;;;;;41.87;23.37;;;;;;;;;;10407720;28;20033;-72
2022/02/22 18:01:22;;;;;;;46.10;21.20;;;;;;;;;;10407517;28;20450;-71
2022/02/22 18:06:27;;;;;;;41.97;20.88;;;;;;;;;;10446137;28;20107;-70
2022/02/22 18:11:28;;;;;;;42.25;21.08;;;;;;;;;;10431746;28;20416;-68
2022/02/22 18:16:29;;;;;;;44.13;23.05;;;;;;;;;;10449186;28;20032;-70
2022/02/22 18:21:29;;;;;;;44.55;22.27;;;;;;;;;;10447772;28;20024;-71
2022/02/22 18:26:30;;;;;;;34.95;19.13;;;;;;;;;;10447854;28;20419;-71
2022/02/22 18:31:30;;;;;;;38.88;21.45;;;;;;;;;;10447439;28;20396;-71
2022/02/22 18:36:32;;;;;;;40.50;20.30;;;;;;;;;;10447192;28;20574;-71
2022/02/22 18:41:32;;;;;;;44.78;20.20;;;;;;;;;;10447407;28;20035;-73
2022/02/22 18:46:32;;;;;;;41.33;22.17;;;;;;;;;;10448323;28;20480;-71
2022/02/22 18:51:33;;;;;;;40.85;21.92;;;;;;;;;;10447948;28;20025;-71
2022/02/22 18:56:33;;;;;;;39.63;21.05;;;;;;;;;;10446870;28;20021;-71
2022/02/22 19:01:34;;;;;;;38.58;20.80;;;;;;;;;;10446300;28;20388;-74
2022/02/22 19:06:35;;;;;;;42.50;22.48;;;;;;;;;;10422668;28;20112;-74
2022/02/22 19:11:35;;;;;;;48.53;23.10;;;;;;;;;;10406275;28;20033;-73
2022/02/22 19:16:36;;;;;;;46.35;21.35;;;;;;;;;;10404636;28;20386;-71
2022/02/22 19:21:36;;;;;;;40.53;19.73;;;;;;;;;;10404743;28;20405;-71
2022/02/22 19:26:36;;;;;;;48.30;24.17;;;;;;;;;;10404425;28;20028;-74
2022/02/22 19:31:37;;;;;;;46.63;24.85;;;;;;;;;;10403785;28;20041;-70
2022/02/22 19:36:37;;;;;;;45.95;23.63;;;;;;;;;;10421702;28;20045;-71
2022/02/22 19:41:37;;;;;;;48.80;23.40;;;;;;;;;;10406088;28;20052;-70
2022/02/22 19:46:38;;;;;;;39.87;20.00;;;;;;;;;;10427267;28;20029;-70
2022/02/22 19:51:38;;;;;;;44.65;21.88;;;;;;;;;;10445186;28;20025;-70
2022/02/22 19:56:38;;;;;;;47.53;24.17;;;;;;;;;;10444808;28;20087;-70
2022/02/22 20:01:39;;;;;;;51.03;24.05;;;;;;;;;;10444693;28;20083;-70
2022/02/22 20:06:39;;;;;;;50.30;22.92;;;;;;;;;;10444446;28;20128;-71
2022/02/22 20:11:40;;;;;;;44.17;22.47;;;;;;;;;;10444676;28;20027;-73
2022/02/22 20:16:40;;;;;;;51.85;24.45;;;;;;;;;;10444524;28;20028;-74
2022/02/22 20:21:41;;;;;;;47.92;23.20;;;;;;;;;;10445720;28;20021;-71
2022/02/22 20:26:41;;;;;;;50.58;23.65;;;;;;;;;;10427841;28;20025;-70
2022/02/22 20:31:41;;;;;;;52.88;25.27;;;;;;;;;;10443999;28;20119;-71
2022/02/22 20:36:42;;;;;;;51.80;25.13;;;;;;;;;;10444883;28;20057;-73
2022/02/22 20:41:42;;;;;;;50.75;22.52;;;;;;;;;;10450778;28;20020;-70
2022/02/22 20:46:43;;;;;;;49.10;23.00;;;;;;;;;;10452277;28;20032;-70
2022/02/22 20:51:43;;;;;;;48.25;23.17;;;;;;;;;;10452022;28;20147;-71
2022/02/22 20:56:44;;;;;;;52.60;22.00;;;;;;;;;;10451468;28;20449;-70
2022/02/22 21:01:44;;;;;;;46.55;22.38;;;;;;;;;;10451498;28;20112;-71
2022/02/22 21:06:44;;;;;;;47.63;24.08;;;;;;;;;;10450664;28;20024;-71
2022/02/22 21:11:45;;;;;;;48.93;22.97;;;;;;;;;;10451035;28;20451;-68
2022/02/22 21:16:46;;;;;;;48.40;21.80;;;;;;;;;;10450239;28;20032;-70
2022/02/22 21:21:46;;;;;;;46.42;23.45;;;;;;;;;;10426000;28;20026;-73
2022/02/22 21:26:46;;;;;;;51.77;22.83;;;;;;;;;;10408740;28;20022;-72
2022/02/22 21:31:46;;;;;;;50.67;24.73;;;;;;;;;;10407373;28;20489;-71
2022/02/22 21:36:47;;;;;;;49.50;23.35;;;;;;;;;;10422889;28;20068;-71
2022/02/22 21:41:48;;;;;;;52.65;23.83;;;;;;;;;;10413732;28;20060;-73
2022/02/22 21:46:48;;;;;;;52.80;24.60;;;;;;;;;;10447615;28;20025;-73
2022/02/22 21:51:48;;;;;;;52.08;23.55;;;;;;;;;;10408818;28;20367;-73
2022/02/22 21:56:49;;;;;;;48.83;24.10;;;;;;;;;;10407556;28;20025;-72
2022/02/22 22:01:49;;;;;;;51.63;25.30;;;;;;;;;;10406745;28;20020;-72
2022/02/22 22:06:49;;;;;;;51.93;22.63;;;;;;;;;;10424198;28;20029;-71
2022/02/22 22:11:50;;;;;;;47.28;23.27;;;;;;;;;;10424744;28;20017;-71
2022/02/22 22:16:50;;;;;;;54.17;24.83;;;;;;;;;;10414252;28;20038;-72
2022/02/22 22:21:51;;;;;;;45.70;23.20;;;;;;;;;;10447113;28;20036;-77
2022/02/22 22:26:51;;;;;;;49.53;25.37;;;;;;;;;;10447456;28;20041;-77
2022/02/22 22:31:51;;;;;;;55.87;25.80;;;;;;;;;;10446961;28;20029;-76
2022/02/22 22:36:52;;;;;;;53.43;26.67;;;;;;;;;;10446573;28;20102;-72
2022/02/22 22:41:52;;;;;;;43.70;22.25;;;;;;;;;;10446247;28;20025;-76
2022/02/22 22:46:52;;;;;;;48.43;23.97;;;;;;;;;;10444316;28;20043;-75
2022/02/22 22:51:52;;;;;;;40.85;21.88;;;;;;;;;;10424499;28;20075;-73
2022/02/22 22:56:55;;;;;;;49.92;23.95;;;;;;;;;;10419424;28;20479;-71
2022/02/22 23:01:55;;;;;;;45.38;22.15;;;;;;;;;;10404465;28;20599;-73
2022/02/22 23:17:33;;;;;;;54.05;26.38;;;;;;;;;;10406987;28;20026;-77
2022/02/22 23:22:33;;;;;;;47.03;23.90;;;;;;;;;;10405703;28;20018;-73
2022/02/22 23:27:34;;;;;;;47.88;23.00;;;;;;;;;;10435125;28;20116;-79
2022/02/22 23:32:34;;;;;;;45.10;23.23;;;;;;;;;;10445523;28;20148;-78
2022/02/22 23:37:34;;;;;;;45.57;23.57;;;;;;;;;;10444953;28;20025;-75
2022/02/22 23:42:35;;;;;;;45.03;23.63;;;;;;;;;;10403275;28;20841;-74
2022/02/22 23:47:35;;;;;;;44.97;21.65;;;;;;;;;;10405527;28;20516;-75
2022/02/22 23:52:35;;;;;;;46.08;24.08;;;;;;;;;;10403487;28;20082;-74
2022/02/22 23:57:36;;;;;;;43.63;22.25;;;;;;;;;;10403329;28;20044;-77
